Bossangoa, Central African Republic
Current Conditions -  °F | °C
As of 3:00 AM on Thursday 18 Dec 2014 (Local Time) from FEFF Reporting Station
Clear Clear  
Wind Chill: 72°   Ceiling: Unl
Heat Index: 72°   Visibility: 6mi
Dew Point: 72°   Wind: 2mph
Humidity: 100%   Direction: NA
Pressure: 29.85"   Gusts: NA
Location:  6.5°N, 17.46°E
Report Text: FEFF 180200Z VRB02KT CAVOK 22/22 Q1011 NOSIG
Loading
Personal Weather Stations






























Interactive Weather Map New forecast layout! Learn more

10-Day Weather Forecast

Advertisements
Track Severe Weather on mobile